createdAt,value
2019-03-25T00:00:47.976Z,1013.62
2019-03-25T00:01:47.974Z,1013.60
2019-03-25T00:02:47.935Z,1013.55
2019-03-25T00:03:47.941Z,1013.57
2019-03-25T00:04:47.919Z,1013.55
2019-03-25T00:05:47.906Z,1013.55
2019-03-25T00:06:47.916Z,1013.58
2019-03-25T00:07:47.888Z,1013.55
2019-03-25T00:08:47.878Z,1013.52
2019-03-25T00:09:47.871Z,1013.51
2019-03-25T00:10:47.846Z,1013.49
2019-03-25T00:11:47.858Z,1013.43
2019-03-25T00:12:47.836Z,1013.46
2019-03-25T00:13:47.816Z,1013.45
2019-03-25T00:14:47.821Z,1013.45
2019-03-25T00:15:47.792Z,1013.42
2019-03-25T00:16:47.848Z,1013.41
2019-03-25T00:17:47.781Z,1013.46
2019-03-25T00:18:47.767Z,1013.41
2019-03-25T00:19:47.750Z,1013.39
2019-03-25T00:20:47.752Z,1013.36
2019-03-25T00:21:47.768Z,1013.37
2019-03-25T00:22:47.720Z,1013.33
2019-03-25T00:23:47.710Z,1013.34
2019-03-25T00:24:47.702Z,1013.29
2019-03-25T00:25:47.689Z,1013.28
2019-03-25T00:26:47.700Z,1013.30
2019-03-25T00:27:47.662Z,1013.25
2019-03-25T00:28:47.655Z,1013.25
2019-03-25T00:29:47.650Z,1013.21
2019-03-25T00:30:47.628Z,1013.24
2019-03-25T00:31:47.653Z,1013.26
2019-03-25T00:32:47.610Z,1013.17
2019-03-25T00:33:47.606Z,1013.16
2019-03-25T00:34:47.582Z,1013.17
2019-03-25T00:35:47.578Z,1013.12
2019-03-25T00:36:47.583Z,1013.12
2019-03-25T00:37:47.554Z,1013.14
2019-03-25T00:38:47.545Z,1013.12
2019-03-25T00:39:47.530Z,1013.13
2019-03-25T00:40:47.526Z,1013.12
2019-03-25T00:41:47.532Z,1013.12
2019-03-25T00:42:47.501Z,1013.08
2019-03-25T00:43:47.489Z,1013.10
2019-03-25T00:44:47.474Z,1013.05
2019-03-25T00:45:47.464Z,1013.05
2019-03-25T00:46:47.472Z,1013.00
2019-03-25T00:47:47.442Z,1013.01
2019-03-25T00:48:47.440Z,1013.05
2019-03-25T00:49:47.420Z,1013.05
2019-03-25T00:50:47.414Z,1013.01
2019-03-25T00:51:47.432Z,1012.95
2019-03-25T00:52:47.580Z,1012.99
2019-03-25T00:53:47.391Z,1012.90
2019-03-25T00:54:50.136Z,1012.87
2019-03-25T00:55:47.365Z,1012.87
2019-03-25T00:56:47.346Z,1012.84
2019-03-25T00:57:47.573Z,1012.84
2019-03-25T00:58:47.320Z,1012.82
2019-03-25T00:59:49.036Z,1012.81
2019-03-25T01:00:47.303Z,1012.75
2019-03-25T01:01:47.286Z,1012.73
2019-03-25T01:02:47.306Z,1012.71
2019-03-25T01:03:47.278Z,1012.72
2019-03-25T01:04:47.258Z,1012.69
2019-03-25T01:05:47.253Z,1012.62
2019-03-25T01:06:47.232Z,1012.62
2019-03-25T01:07:47.242Z,1012.62
2019-03-25T01:08:47.209Z,1012.55
2019-03-25T01:09:47.202Z,1012.54
2019-03-25T01:10:47.186Z,1012.51
2019-03-25T01:11:49.320Z,1012.51
2019-03-25T01:12:47.180Z,1012.52
2019-03-25T01:13:47.170Z,1012.48
2019-03-25T01:14:47.159Z,1012.50
2019-03-25T01:15:47.134Z,1012.50
2019-03-25T01:16:47.126Z,1012.49
2019-03-25T01:17:47.580Z,1012.42
2019-03-25T01:18:47.103Z,1012.40
2019-03-25T01:19:47.090Z,1012.35
2019-03-25T01:20:47.087Z,1012.35
2019-03-25T01:21:47.066Z,1012.37
2019-03-25T01:22:47.114Z,1012.32
2019-03-25T01:23:47.046Z,1012.20
2019-03-25T01:24:47.035Z,1012.26
2019-03-25T01:25:47.031Z,1012.20
2019-03-25T01:26:47.010Z,1012.17
2019-03-25T01:27:47.022Z,1012.10
2019-03-25T01:28:46.985Z,1012.10
2019-03-25T01:29:46.984Z,1012.06
2019-03-25T01:30:46.972Z,1012.10
2019-03-25T01:31:46.956Z,1012.13
2019-03-25T01:32:46.981Z,1012.08
2019-03-25T01:33:46.960Z,1012.11
2019-03-25T01:34:46.927Z,1012.13
2019-03-25T01:35:46.909Z,1012.12
2019-03-25T01:36:46.905Z,1012.04
2019-03-25T01:37:46.922Z,1012.05
2019-03-25T01:38:46.886Z,1011.96
2019-03-25T01:39:46.862Z,1011.96
2019-03-25T01:40:46.859Z,1011.91
2019-03-25T01:41:46.848Z,1011.93
2019-03-25T01:42:47.088Z,1011.92
2019-03-25T01:43:46.822Z,1011.92
2019-03-25T01:44:46.814Z,1011.89
2019-03-25T01:45:46.805Z,1011.84
2019-03-25T01:46:46.787Z,1011.79
2019-03-25T01:47:46.816Z,1011.76
2019-03-25T01:48:46.785Z,1011.82
2019-03-25T01:49:46.763Z,1011.79
2019-03-25T01:50:46.743Z,1011.72
2019-03-25T01:51:46.738Z,1011.74
2019-03-25T01:52:46.753Z,1011.70
2019-03-25T01:53:46.731Z,1011.69
2019-03-25T01:54:46.711Z,1011.68
2019-03-25T01:55:46.696Z,1011.66
2019-03-25T01:56:46.688Z,1011.62
2019-03-25T01:57:46.678Z,1011.60
2019-03-25T01:58:46.675Z,1011.63
2019-03-25T01:59:46.655Z,1011.57
2019-03-25T02:00:46.634Z,1011.55
2019-03-25T02:01:46.630Z,1011.54
2019-03-25T02:02:46.611Z,1011.54
2019-03-25T02:03:46.629Z,1011.50
2019-03-25T02:04:46.591Z,1011.53
2019-03-25T02:05:46.576Z,1011.48
2019-03-25T02:06:46.568Z,1011.48
2019-03-25T02:07:46.556Z,1011.46
2019-03-25T02:08:46.580Z,1011.45
2019-03-25T02:09:46.535Z,1011.39
2019-03-25T02:10:46.527Z,1011.40
2019-03-25T02:11:46.512Z,1011.39
2019-03-25T02:12:46.504Z,1011.37
2019-03-25T02:13:46.510Z,1011.40
2019-03-25T02:14:46.484Z,1011.36
2019-03-25T02:15:46.476Z,1011.35
2019-03-25T02:16:46.466Z,1011.29
2019-03-25T02:17:46.448Z,1011.29
2019-03-25T02:18:46.472Z,1011.33
2019-03-25T02:19:46.426Z,1011.34
2019-03-25T02:20:46.410Z,1011.24
2019-03-25T02:21:46.406Z,1011.24
2019-03-25T02:22:46.537Z,1011.24
2019-03-25T02:23:46.408Z,1011.19
2019-03-25T02:24:46.366Z,1011.19
2019-03-25T02:25:46.360Z,1011.12
2019-03-25T02:26:46.346Z,1011.16
2019-03-25T02:27:46.342Z,1011.12
2019-03-25T02:28:46.347Z,1011.12
2019-03-25T02:29:46.321Z,1011.14
2019-03-25T02:30:46.314Z,1011.11
2019-03-25T02:31:46.300Z,1011.12
2019-03-25T02:32:46.281Z,1011.06
2019-03-25T02:33:46.290Z,1011.06
2019-03-25T02:34:46.257Z,1011.03
2019-03-25T02:35:46.254Z,1011.03
2019-03-25T02:36:46.235Z,1011.01
2019-03-25T02:37:46.227Z,1011.02
2019-03-25T02:38:46.241Z,1010.97
2019-03-25T02:39:46.217Z,1010.93
2019-03-25T02:40:46.200Z,1010.96
2019-03-25T02:41:46.199Z,1010.97
2019-03-25T02:42:46.172Z,1010.94
2019-03-25T02:43:46.198Z,1010.92
2019-03-25T02:44:46.160Z,1010.86
2019-03-25T02:45:46.148Z,1010.85
2019-03-25T02:46:46.143Z,1010.84
2019-03-25T02:47:46.125Z,1010.78
2019-03-25T02:48:46.130Z,1010.78
2019-03-25T02:49:46.091Z,1010.81
2019-03-25T02:50:46.586Z,1010.80
2019-03-25T02:51:46.076Z,1010.81
2019-03-25T02:52:46.071Z,1010.81
2019-03-25T02:53:46.053Z,1010.78
2019-03-25T02:54:46.064Z,1010.77
2019-03-25T02:55:46.033Z,1010.74
2019-03-25T02:56:46.033Z,1010.65
2019-03-25T02:57:46.012Z,1010.68
2019-03-25T02:58:46.019Z,1010.71
2019-03-25T02:59:46.020Z,1010.65
2019-03-25T03:00:45.971Z,1010.59
2019-03-25T03:01:45.984Z,1010.62
2019-03-25T03:02:45.952Z,1010.57
2019-03-25T03:03:45.950Z,1010.52
2019-03-25T03:04:45.963Z,1010.51
2019-03-25T03:05:45.918Z,1010.51
2019-03-25T03:06:45.903Z,1010.49
2019-03-25T03:07:45.902Z,1010.49
2019-03-25T03:08:47.666Z,1010.46
2019-03-25T03:09:45.894Z,1010.47
2019-03-25T03:10:45.862Z,1010.40
2019-03-25T03:11:45.853Z,1010.40
2019-03-25T03:12:45.848Z,1010.32
2019-03-25T03:13:45.826Z,1010.32
2019-03-25T03:14:45.835Z,1010.35
2019-03-25T03:15:45.811Z,1010.34
2019-03-25T03:16:45.796Z,1010.33
2019-03-25T03:17:45.788Z,1010.35
2019-03-25T03:18:45.783Z,1010.27
2019-03-25T03:19:45.801Z,1010.32
2019-03-25T03:20:45.782Z,1010.27
2019-03-25T03:21:45.744Z,1010.24
2019-03-25T03:22:45.738Z,1010.28
2019-03-25T03:23:45.722Z,1010.27
2019-03-25T03:24:45.797Z,1010.24
2019-03-25T03:25:57.369Z,1010.18
2019-03-25T03:26:46.705Z,1010.20
2019-03-25T03:27:45.681Z,1010.17
2019-03-25T03:28:45.666Z,1010.12
2019-03-25T03:29:45.673Z,1010.20
2019-03-25T03:30:45.666Z,1010.17
2019-03-25T03:31:45.635Z,1010.13
2019-03-25T03:32:45.629Z,1010.07
2019-03-25T03:33:45.611Z,1010.07
2019-03-25T03:34:45.640Z,1010.06
2019-03-25T03:35:46.686Z,1010.04
2019-03-25T03:36:45.585Z,1010.05
2019-03-25T03:37:45.570Z,1010.06
2019-03-25T03:38:45.553Z,1009.98
2019-03-25T03:39:45.571Z,1009.99
2019-03-25T03:40:45.536Z,1009.94
2019-03-25T03:41:45.529Z,1009.92
2019-03-25T03:42:45.520Z,1009.93
2019-03-25T03:43:45.498Z,1009.90
2019-03-25T03:44:45.511Z,1009.84
2019-03-25T03:45:45.481Z,1009.83
2019-03-25T03:46:45.471Z,1009.84
2019-03-25T03:47:45.460Z,1009.83
2019-03-25T03:48:45.445Z,1009.83
2019-03-25T03:49:45.487Z,1009.79
2019-03-25T03:50:45.431Z,1009.81
2019-03-25T03:51:45.408Z,1009.79
2019-03-25T03:52:45.403Z,1009.73
2019-03-25T03:53:45.398Z,1009.78
2019-03-25T03:54:45.400Z,1009.73
2019-03-25T03:55:45.366Z,1009.73
2019-03-25T03:56:45.363Z,1009.71
2019-03-25T03:57:45.344Z,1009.72
2019-03-25T03:58:45.337Z,1009.71
2019-03-25T03:59:45.355Z,1009.73
2019-03-25T04:00:45.313Z,1009.70
2019-03-25T04:01:45.302Z,1009.67
2019-03-25T04:02:45.293Z,1009.69
2019-03-25T04:03:45.285Z,1009.66
2019-03-25T04:04:45.310Z,1009.63
2019-03-25T04:05:45.257Z,1009.57
2019-03-25T04:06:45.248Z,1009.64
2019-03-25T04:07:45.238Z,1009.63
2019-03-25T04:08:45.226Z,1009.62
2019-03-25T04:09:45.219Z,1009.56
2019-03-25T04:10:45.307Z,1009.58
2019-03-25T04:11:45.197Z,1009.53
2019-03-25T04:12:45.185Z,1009.49
2019-03-25T04:13:45.197Z,1009.44
2019-03-25T04:14:45.167Z,1009.41
2019-03-25T04:15:45.169Z,1009.37
2019-03-25T04:16:45.136Z,1009.38
2019-03-25T04:17:45.128Z,1009.37
2019-03-25T04:18:45.125Z,1009.38
2019-03-25T04:19:45.100Z,1009.31
2019-03-25T04:20:45.152Z,1009.32
2019-03-25T04:21:45.091Z,1009.30
2019-03-25T04:22:45.075Z,1009.28
2019-03-25T04:23:46.544Z,1009.31
2019-03-25T04:24:45.054Z,1009.23
2019-03-25T04:25:45.076Z,1009.24
2019-03-25T04:26:45.036Z,1009.24
2019-03-25T04:27:45.018Z,1009.22
2019-03-25T04:28:45.007Z,1009.19
2019-03-25T04:29:45.028Z,1009.19
2019-03-25T04:30:44.999Z,1009.18
2019-03-25T04:31:44.980Z,1009.12
2019-03-25T04:32:44.978Z,1009.09
2019-03-25T04:33:44.954Z,1009.12
2019-03-25T04:34:44.938Z,1009.11
2019-03-25T04:35:44.976Z,1009.05
2019-03-25T04:36:44.913Z,1008.99
2019-03-25T04:37:44.904Z,1008.99
2019-03-25T04:38:44.906Z,1008.89
2019-03-25T04:39:44.900Z,1008.89
2019-03-25T04:40:44.877Z,1008.87
2019-03-25T04:41:44.886Z,1008.87
2019-03-25T04:42:44.852Z,1008.88
2019-03-25T04:43:44.844Z,1008.85
2019-03-25T04:44:44.826Z,1008.91
2019-03-25T04:45:44.814Z,1008.90
2019-03-25T04:46:44.828Z,1008.87
2019-03-25T04:47:44.807Z,1008.85
2019-03-25T04:48:44.788Z,1008.85
2019-03-25T04:49:44.781Z,1008.79
2019-03-25T04:50:44.766Z,1008.73
2019-03-25T04:51:45.118Z,1008.73
2019-03-25T04:52:44.747Z,1008.72
2019-03-25T04:53:44.733Z,1008.67
2019-03-25T04:54:44.724Z,1008.66
2019-03-25T04:55:44.722Z,1008.67
2019-03-25T04:56:44.712Z,1008.62
2019-03-25T04:57:44.683Z,1008.63
2019-03-25T04:58:44.678Z,1008.66
2019-03-25T04:59:44.664Z,1008.62
2019-03-25T05:00:44.654Z,1008.61
2019-03-25T05:01:44.680Z,1008.63
2019-03-25T05:02:44.630Z,1008.60
2019-03-25T05:03:44.620Z,1008.71
2019-03-25T05:04:44.614Z,1008.63
2019-03-25T05:05:44.606Z,1008.61
2019-03-25T05:06:44.607Z,1008.58
2019-03-25T05:07:44.584Z,1008.64
2019-03-25T05:08:44.566Z,1008.62
2019-03-25T05:09:44.553Z,1008.56
2019-03-25T05:10:44.544Z,1008.51
2019-03-25T05:11:44.553Z,1008.55
2019-03-25T05:12:44.524Z,1008.50
2019-03-25T05:13:44.511Z,1008.45
2019-03-25T05:14:44.496Z,1008.46
2019-03-25T05:15:44.495Z,1008.41
2019-03-25T05:16:44.497Z,1008.42
2019-03-25T05:17:44.476Z,1008.38
2019-03-25T05:18:44.458Z,1008.34
2019-03-25T05:19:44.438Z,1008.30
2019-03-25T05:20:44.433Z,1008.24
2019-03-25T05:21:44.452Z,1008.24
2019-03-25T05:22:44.413Z,1008.25
2019-03-25T05:23:44.404Z,1008.25
2019-03-25T05:24:44.387Z,1008.19
2019-03-25T05:25:44.378Z,1008.17
2019-03-25T05:26:51.072Z,1008.17
2019-03-25T05:27:45.373Z,1008.12
2019-03-25T05:28:44.345Z,1008.11
2019-03-25T05:29:44.331Z,1008.14
2019-03-25T05:30:44.321Z,1008.11
2019-03-25T05:31:44.314Z,1008.06
2019-03-25T05:32:44.321Z,1008.11
2019-03-25T05:33:44.289Z,1008.09
2019-03-25T05:34:44.280Z,1008.04
2019-03-25T05:35:46.758Z,1008.10
2019-03-25T05:36:44.250Z,1008.02
2019-03-25T05:37:44.258Z,1008.06
2019-03-25T05:38:44.237Z,1008.01
2019-03-25T05:39:44.226Z,1008.07
2019-03-25T05:40:44.263Z,1008.02
2019-03-25T05:41:44.198Z,1008.04
2019-03-25T05:42:44.221Z,1008.01
2019-03-25T05:43:44.175Z,1007.99
2019-03-25T05:44:44.172Z,1007.94
2019-03-25T05:45:44.158Z,1007.95
2019-03-25T05:46:44.154Z,1007.91
2019-03-25T05:47:44.174Z,1007.93
2019-03-25T05:48:44.117Z,1007.89
2019-03-25T05:49:44.119Z,1007.87
2019-03-25T05:50:44.096Z,1007.89
2019-03-25T05:51:44.096Z,1007.84
2019-03-25T05:52:44.133Z,1007.86
2019-03-25T05:53:44.066Z,1007.86
2019-03-25T05:54:44.066Z,1007.83
2019-03-25T05:55:44.132Z,1007.86
2019-03-25T05:56:44.036Z,1007.87
2019-03-25T05:57:44.060Z,1007.82
2019-03-25T05:58:44.018Z,1007.89
2019-03-25T05:59:44.000Z,1007.84
2019-03-25T06:00:43.992Z,1007.83
2019-03-25T06:01:44.386Z,1007.84
2019-03-25T06:02:43.985Z,1007.78
2019-03-25T06:03:43.956Z,1007.84
2019-03-25T06:04:43.959Z,1007.86
2019-03-25T06:05:43.932Z,1007.91
2019-03-25T06:06:43.942Z,1007.90
2019-03-25T06:07:43.927Z,1007.98
2019-03-25T06:08:43.938Z,1007.94
2019-03-25T06:09:43.889Z,1007.89
2019-03-25T06:10:43.884Z,1007.90
2019-03-25T06:11:43.866Z,1007.85
2019-03-25T06:12:43.878Z,1007.84
2019-03-25T06:13:43.858Z,1007.90
2019-03-25T06:14:43.852Z,1007.85
2019-03-25T06:15:43.821Z,1007.88
2019-03-25T06:16:43.819Z,1007.86
2019-03-25T06:17:43.844Z,1007.86
2019-03-25T06:18:43.788Z,1007.87
2019-03-25T06:19:43.778Z,1007.82
2019-03-25T06:20:43.769Z,1007.84
2019-03-25T06:21:43.760Z,1007.85
2019-03-25T06:22:43.771Z,1007.90
2019-03-25T06:23:43.748Z,1007.89
2019-03-25T06:24:43.730Z,1007.86
2019-03-25T06:25:43.730Z,1007.87
2019-03-25T06:26:43.701Z,1007.82
2019-03-25T06:27:43.807Z,1007.79
2019-03-25T06:28:43.679Z,1007.86
2019-03-25T06:29:43.673Z,1007.87
2019-03-25T06:30:43.663Z,1007.92
2019-03-25T06:31:43.665Z,1007.92
2019-03-25T06:32:43.651Z,1007.90
2019-03-25T06:33:43.622Z,1007.89
2019-03-25T06:34:43.610Z,1007.86
2019-03-25T06:35:43.608Z,1007.95
2019-03-25T06:36:43.596Z,1007.87
2019-03-25T06:37:43.630Z,1007.88
2019-03-25T06:38:43.579Z,1007.91
2019-03-25T06:39:43.562Z,1007.93
2019-03-25T06:40:43.555Z,1007.95
2019-03-25T06:41:43.538Z,1007.97
2019-03-25T06:42:43.565Z,1007.94
2019-03-25T06:43:43.514Z,1007.97
2019-03-25T06:44:43.500Z,1007.99
2019-03-25T06:45:43.488Z,1008.01
2019-03-25T06:46:43.479Z,1008.00
2019-03-25T06:47:43.479Z,1008.10
2019-03-25T06:48:43.481Z,1008.05
2019-03-25T06:49:43.448Z,1008.12
2019-03-25T06:50:43.446Z,1008.06
2019-03-25T06:51:45.193Z,1008.12
2019-03-25T06:52:43.420Z,1008.12
2019-03-25T06:53:43.423Z,1008.09
2019-03-25T06:54:43.401Z,1008.07
2019-03-25T06:55:43.387Z,1008.09
2019-03-25T06:56:43.370Z,1008.10
2019-03-25T06:57:43.370Z,1008.11
2019-03-25T06:58:43.380Z,1008.07
2019-03-25T06:59:43.347Z,1008.08
2019-03-25T07:00:43.334Z,1008.09
2019-03-25T07:01:43.316Z,1008.12
2019-03-25T07:02:43.306Z,1008.09
2019-03-25T07:03:43.340Z,1008.06
2019-03-25T07:04:43.288Z,1008.10
2019-03-25T07:05:43.269Z,1008.10
2019-03-25T07:06:43.261Z,1008.12
2019-03-25T07:07:43.253Z,1008.16
2019-03-25T07:08:43.277Z,1008.10
2019-03-25T07:09:43.233Z,1008.10
2019-03-25T07:10:43.221Z,1008.10
2019-03-25T07:11:43.210Z,1008.12
2019-03-25T07:12:43.198Z,1008.11
2019-03-25T07:13:43.214Z,1008.16
2019-03-25T07:14:43.185Z,1008.15
2019-03-25T07:15:44.414Z,1008.17
2019-03-25T07:16:43.163Z,1008.19
2019-03-25T07:17:43.142Z,1008.21
2019-03-25T07:18:43.146Z,1008.24
2019-03-25T07:19:43.148Z,1008.21
2019-03-25T07:20:43.118Z,1008.20
2019-03-25T07:21:43.119Z,1008.20
2019-03-25T07:22:43.094Z,1008.25
2019-03-25T07:23:43.078Z,1008.25
2019-03-25T07:24:43.090Z,1008.23
2019-03-25T07:25:43.058Z,1008.26
2019-03-25T07:26:43.057Z,1008.25
2019-03-25T07:27:43.038Z,1008.24
2019-03-25T07:28:43.022Z,1008.27
2019-03-25T07:29:43.034Z,1008.18
2019-03-25T07:30:43.002Z,1008.19
2019-03-25T07:31:42.992Z,1008.20
2019-03-25T07:32:42.998Z,1008.22
2019-03-25T07:33:42.986Z,1008.18
2019-03-25T07:34:43.008Z,1008.18
2019-03-25T07:35:42.965Z,1008.16
2019-03-25T07:36:42.934Z,1008.19
2019-03-25T07:37:42.928Z,1008.18
2019-03-25T07:38:42.921Z,1008.15
2019-03-25T07:39:42.920Z,1008.14
2019-03-25T07:40:42.889Z,1008.21
2019-03-25T07:41:42.880Z,1008.14
2019-03-25T07:42:43.154Z,1008.19
2019-03-25T07:43:42.868Z,1008.19
2019-03-25T07:44:42.870Z,1008.21
2019-03-25T07:45:42.840Z,1008.20
2019-03-25T07:46:42.825Z,1008.24
2019-03-25T07:47:42.850Z,1008.23
2019-03-25T07:48:42.807Z,1008.22
2019-03-25T07:49:42.818Z,1008.27
2019-03-25T07:50:42.786Z,1008.20
2019-03-25T07:51:42.769Z,1008.21
2019-03-25T07:52:42.764Z,1008.20
2019-03-25T07:53:42.801Z,1008.20
2019-03-25T07:54:42.765Z,1008.21
2019-03-25T07:55:42.735Z,1008.25
2019-03-25T07:56:42.738Z,1008.21
2019-03-25T07:57:48.085Z,1008.27
2019-03-25T07:58:43.702Z,1008.19
2019-03-25T07:59:42.711Z,1008.19
2019-03-25T08:00:42.686Z,1008.16
2019-03-25T08:01:42.674Z,1008.23
2019-03-25T08:02:42.647Z,1008.27
2019-03-25T08:03:42.670Z,1008.20
2019-03-25T08:04:42.661Z,1008.24
2019-03-25T08:05:42.637Z,1008.22
2019-03-25T08:06:42.623Z,1008.19
2019-03-25T08:07:42.620Z,1008.22
2019-03-25T08:08:42.581Z,1008.25
2019-03-25T08:09:42.580Z,1008.25
2019-03-25T08:10:42.588Z,1008.29
2019-03-25T08:11:42.558Z,1008.30
2019-03-25T08:12:42.554Z,1008.39
2019-03-25T08:13:42.553Z,1008.33
2019-03-25T08:14:42.553Z,1008.30
2019-03-25T08:15:42.547Z,1008.32
2019-03-25T08:16:42.493Z,1008.28
2019-03-25T08:17:42.487Z,1008.32
2019-03-25T08:18:42.481Z,1008.31
2019-03-25T08:19:42.462Z,1008.24
2019-03-25T08:20:42.466Z,1008.30
2019-03-25T08:21:42.450Z,1008.26
2019-03-25T08:22:42.434Z,1008.29
2019-03-25T08:23:42.423Z,1008.29
2019-03-25T08:24:42.412Z,1008.28
2019-03-25T08:25:42.418Z,1008.25
2019-03-25T08:26:42.912Z,1008.22
2019-03-25T08:27:42.377Z,1008.31
2019-03-25T08:28:42.380Z,1008.25
2019-03-25T08:29:42.366Z,1008.35
2019-03-25T08:30:42.368Z,1008.31
2019-03-25T08:31:42.331Z,1008.40
2019-03-25T08:32:42.325Z,1008.35
2019-03-25T08:33:42.310Z,1008.33
2019-03-25T08:34:42.300Z,1008.34
2019-03-25T08:35:43.165Z,1008.39
2019-03-25T08:36:42.278Z,1008.35
2019-03-25T08:37:42.268Z,1008.44
2019-03-25T08:38:42.260Z,1008.43
2019-03-25T08:39:42.251Z,1008.42
2019-03-25T08:40:42.275Z,1008.46
2019-03-25T08:41:42.229Z,1008.51
2019-03-25T08:42:42.207Z,1008.52
2019-03-25T08:43:42.199Z,1008.55
2019-03-25T08:44:42.201Z,1008.54
2019-03-25T08:45:42.196Z,1008.55
2019-03-25T08:46:42.178Z,1008.59
2019-03-25T08:47:42.166Z,1008.52
2019-03-25T08:48:42.146Z,1008.54
2019-03-25T08:49:42.137Z,1008.54
2019-03-25T08:50:42.154Z,1008.59
2019-03-25T08:51:42.111Z,1008.54
2019-03-25T08:52:42.132Z,1008.55
2019-03-25T08:53:42.086Z,1008.61
2019-03-25T08:54:42.092Z,1008.55
2019-03-25T08:55:42.086Z,1008.55
2019-03-25T08:56:42.065Z,1008.55
2019-03-25T08:57:42.048Z,1008.60
2019-03-25T08:58:42.048Z,1008.60
2019-03-25T08:59:42.024Z,1008.56
2019-03-25T09:00:42.059Z,1008.59
2019-03-25T09:01:42.022Z,1008.62
2019-03-25T09:02:42.009Z,1008.58
2019-03-25T09:03:41.981Z,1008.59
2019-03-25T09:04:41.973Z,1008.62
2019-03-25T09:05:41.962Z,1008.65
2019-03-25T09:06:41.969Z,1008.67
2019-03-25T09:07:41.974Z,1008.63
2019-03-25T09:08:41.927Z,1008.60
2019-03-25T09:09:41.917Z,1008.61
2019-03-25T09:10:41.913Z,1008.64
2019-03-25T09:11:41.932Z,1008.67
2019-03-25T09:12:41.881Z,1008.65
2019-03-25T09:13:41.872Z,1008.67
2019-03-25T09:14:41.860Z,1008.70
2019-03-25T09:15:41.850Z,1008.66
2019-03-25T09:16:41.856Z,1008.62
2019-03-25T09:17:41.824Z,1008.68
2019-03-25T09:18:41.821Z,1008.66
2019-03-25T09:19:41.808Z,1008.69
2019-03-25T09:20:41.799Z,1008.73
2019-03-25T09:21:41.803Z,1008.73
2019-03-25T09:22:41.768Z,1008.75
2019-03-25T09:23:41.760Z,1008.74
2019-03-25T09:24:41.750Z,1008.75
2019-03-25T09:25:41.741Z,1008.71
2019-03-25T09:26:41.755Z,1008.74
2019-03-25T09:27:41.716Z,1008.77
2019-03-25T09:28:41.700Z,1008.78
2019-03-25T09:29:41.696Z,1008.78
2019-03-25T09:30:41.688Z,1008.80
2019-03-25T09:31:41.699Z,1008.80
2019-03-25T09:32:41.674Z,1008.79
2019-03-25T09:33:41.651Z,1008.84
2019-03-25T09:34:41.636Z,1008.83
2019-03-25T09:35:41.683Z,1008.82
2019-03-25T09:36:41.646Z,1008.79
2019-03-25T09:37:41.613Z,1008.79
2019-03-25T09:38:41.607Z,1008.85
2019-03-25T09:39:41.582Z,1008.87
2019-03-25T09:40:41.572Z,1008.89
2019-03-25T09:41:41.584Z,1008.85
2019-03-25T09:42:41.568Z,1008.94
2019-03-25T09:43:41.551Z,1008.97
2019-03-25T09:44:41.528Z,1008.96
2019-03-25T09:45:41.522Z,1008.94
2019-03-25T09:46:41.585Z,1008.93
2019-03-25T09:47:41.499Z,1008.95
2019-03-25T09:48:41.495Z,1009.02
2019-03-25T09:49:41.484Z,1008.97
2019-03-25T09:50:42.113Z,1008.95
2019-03-25T09:51:41.475Z,1008.97
2019-03-25T09:52:41.444Z,1008.96
2019-03-25T09:53:41.425Z,1009.03
2019-03-25T09:54:41.423Z,1008.99
2019-03-25T09:55:41.411Z,1009.02
2019-03-25T09:56:41.437Z,1008.98
2019-03-25T09:57:41.392Z,1009.00
2019-03-25T09:58:41.388Z,1008.99
2019-03-25T09:59:41.362Z,1009.07
2019-03-25T10:00:41.360Z,1009.05
2019-03-25T10:01:41.383Z,1009.07
2019-03-25T10:02:41.335Z,1009.04
2019-03-25T10:03:41.325Z,1009.03
2019-03-25T10:04:41.321Z,1009.06
2019-03-25T10:05:41.301Z,1009.01
2019-03-25T10:06:41.311Z,1009.12
2019-03-25T10:07:41.278Z,1009.08
2019-03-25T10:08:41.265Z,1009.12
2019-03-25T10:09:41.256Z,1009.13
2019-03-25T10:10:41.259Z,1009.11
2019-03-25T10:11:41.260Z,1009.11
2019-03-25T10:12:41.252Z,1009.15
2019-03-25T10:13:41.244Z,1009.09
2019-03-25T10:14:41.213Z,1009.04
2019-03-25T10:15:41.192Z,1009.12
2019-03-25T10:16:41.213Z,1009.10
2019-03-25T10:17:41.170Z,1009.17
2019-03-25T10:18:41.201Z,1009.13
2019-03-25T10:19:41.143Z,1009.15
2019-03-25T10:20:41.202Z,1009.21
2019-03-25T10:21:41.422Z,1009.17
2019-03-25T10:22:41.116Z,1009.20
2019-03-25T10:23:41.141Z,1009.26
2019-03-25T10:24:41.086Z,1009.25
2019-03-25T10:25:41.073Z,1009.28
2019-03-25T10:26:41.108Z,1009.29
2019-03-25T10:27:41.056Z,1009.33
2019-03-25T10:28:48.542Z,1009.36
2019-03-25T10:29:42.032Z,1009.31
2019-03-25T10:30:41.018Z,1009.35
2019-03-25T10:31:41.076Z,1009.35
2019-03-25T10:32:40.995Z,1009.37
2019-03-25T10:33:40.987Z,1009.35
2019-03-25T10:34:40.983Z,1009.36
2019-03-25T10:35:40.960Z,1009.31
2019-03-25T10:36:41.001Z,1009.25
2019-03-25T10:37:40.959Z,1009.17
2019-03-25T10:38:40.938Z,1009.32
2019-03-25T10:39:40.924Z,1009.39
2019-03-25T10:40:40.928Z,1009.40
2019-03-25T10:41:40.925Z,1009.43
2019-03-25T10:42:40.886Z,1009.43
2019-03-25T10:43:40.878Z,1009.41
2019-03-25T10:44:40.863Z,1009.40
2019-03-25T10:45:40.859Z,1009.55
2019-03-25T10:46:40.844Z,1009.47
2019-03-25T10:47:40.839Z,1009.41
2019-03-25T10:48:40.815Z,1009.47
2019-03-25T10:49:40.825Z,1009.44
2019-03-25T10:50:40.832Z,1009.34
2019-03-25T10:51:40.795Z,1009.42
2019-03-25T10:52:40.806Z,1009.49
2019-03-25T10:53:40.757Z,1009.40
2019-03-25T10:54:40.870Z,1009.35
2019-03-25T10:55:40.740Z,1009.34
2019-03-25T10:56:48.839Z,1009.30
2019-03-25T10:57:41.739Z,1009.34
2019-03-25T10:58:41.641Z,1009.33
2019-03-25T10:59:40.746Z,1009.37
2019-03-25T11:00:40.686Z,1009.26
2019-03-25T11:01:40.679Z,1009.25
2019-03-25T11:02:44.149Z,1009.20
2019-03-25T11:04:41.637Z,1009.27
2019-03-25T11:05:40.629Z,1009.27
2019-03-25T11:06:40.613Z,1009.24
2019-03-25T11:08:41.766Z,1009.32
2019-03-25T11:09:40.767Z,1009.30
2019-03-25T11:10:40.824Z,1009.31
2019-03-25T11:11:40.731Z,1009.35
2019-03-25T11:12:40.787Z,1009.33
2019-03-25T11:13:40.706Z,1009.33
2019-03-25T11:14:40.553Z,1009.35
2019-03-25T11:15:40.519Z,1009.30
2019-03-25T11:16:40.518Z,1009.46
2019-03-25T11:17:40.530Z,1009.28
2019-03-25T11:18:40.498Z,1009.33
2019-03-25T11:19:40.497Z,1009.26
2019-03-25T11:20:40.468Z,1009.32
2019-03-25T11:21:40.462Z,1009.27
2019-03-25T11:22:40.480Z,1009.24
2019-03-25T11:23:40.453Z,1009.27
2019-03-25T11:24:40.435Z,1009.30
2019-03-25T11:25:40.448Z,1009.24
2019-03-25T11:26:40.401Z,1009.31
2019-03-25T11:27:40.406Z,1009.27
2019-03-25T11:28:40.383Z,1009.24
2019-03-25T11:29:40.368Z,1009.40
2019-03-25T11:30:40.365Z,1009.20
2019-03-25T11:31:40.338Z,1009.12
2019-03-25T11:32:40.392Z,1009.16
2019-03-25T11:33:40.318Z,1009.43
2019-03-25T11:34:40.323Z,1009.58
2019-03-25T11:35:40.304Z,1009.12
2019-03-25T11:36:40.310Z,1009.39
2019-03-25T11:37:40.312Z,1009.34
2019-03-25T11:38:40.261Z,1009.63
2019-03-25T11:39:40.253Z,1009.64
2019-03-25T11:40:40.247Z,1009.23
2019-03-25T11:41:40.247Z,1009.20
2019-03-25T11:42:40.264Z,1009.23
2019-03-25T11:43:40.221Z,1009.28
2019-03-25T11:44:40.197Z,1009.30
2019-03-25T11:45:40.192Z,1009.34
2019-03-25T11:46:40.191Z,1009.32
2019-03-25T11:47:40.190Z,1009.32
2019-03-25T11:48:40.147Z,1009.31
2019-03-25T11:49:40.138Z,1009.38
2019-03-25T11:50:40.136Z,1009.44
2019-03-25T11:51:40.122Z,1009.44
2019-03-25T11:53:41.125Z,1009.43
2019-03-25T11:54:40.080Z,1009.49
2019-03-25T11:55:40.069Z,1009.41
2019-03-25T11:56:40.067Z,1009.39
2019-03-25T11:57:40.061Z,1009.43
2019-03-25T11:59:41.194Z,1009.69
2019-03-25T12:00:40.193Z,1009.68
2019-03-25T12:01:40.257Z,1009.65
2019-03-25T12:02:40.208Z,1009.52
2019-03-25T12:03:40.171Z,1009.65
2019-03-25T12:04:40.149Z,1009.60
2019-03-25T12:05:40.802Z,1009.54
2019-03-25T12:06:39.955Z,1009.58
2019-03-25T12:07:39.983Z,1009.53
2019-03-25T12:08:39.943Z,1009.46
2019-03-25T12:09:41.551Z,1009.39